sensor_id;sensor_type;location;lat;lon;timestamp;P1;durP1;ratioP1;P2;durP2;ratioP2
9094;SDS011;4583;49.796;9.902;2023-08-30T14:35:44;7.57;;;3.10;;
9094;SDS011;4583;49.796;9.902;2023-08-30T14:45:46;6.07;;;3.20;;
9094;SDS011;4583;49.796;9.902;2023-08-30T14:55:59;5.30;;;2.28;;
9094;SDS011;4583;49.796;9.902;2023-08-30T15:06:01;3.47;;;1.90;;
9094;SDS011;4583;49.796;9.902;2023-08-30T15:16:04;12.97;;;1.90;;
9094;SDS011;4583;49.796;9.902;2023-08-30T15:26:06;6.87;;;1.90;;
9094;SDS011;4583;49.796;9.902;2023-08-30T15:36:08;2.40;;;1.90;;
9094;SDS011;4583;49.796;9.902;2023-08-30T15:46:10;10.57;;;1.90;;
9094;SDS011;4583;49.796;9.902;2023-08-30T15:56:13;3.13;;;2.17;;
9094;SDS011;4583;49.796;9.902;2023-08-30T16:06:15;2.50;;;2.30;;
9094;SDS011;4583;49.796;9.902;2023-08-30T16:16:17;5.03;;;2.60;;
9094;SDS011;4583;49.796;9.902;2023-08-30T16:26:18;4.37;;;2.47;;
9094;SDS011;4583;49.796;9.902;2023-08-30T16:36:23;3.17;;;2.20;;
9094;SDS011;4583;49.796;9.902;2023-08-30T16:46:25;3.53;;;2.30;;
9094;SDS011;4583;49.796;9.902;2023-08-30T16:56:27;2.30;;;2.00;;
9094;SDS011;4583;49.796;9.902;2023-08-30T17:06:29;3.17;;;2.13;;
9094;SDS011;4583;49.796;9.902;2023-08-30T17:16:30;2.67;;;2.10;;
9094;SDS011;4583;49.796;9.902;2023-08-30T17:26:32;3.10;;;2.33;;
9094;SDS011;4583;49.796;9.902;2023-08-30T17:36:34;10.03;;;2.70;;
9094;SDS011;4583;49.796;9.902;2023-08-30T17:46:36;4.73;;;2.53;;
9094;SDS011;4583;49.796;9.902;2023-08-30T17:56:38;2.87;;;2.60;;
9094;SDS011;4583;49.796;9.902;2023-08-30T18:06:40;3.90;;;3.00;;
9094;SDS011;4583;49.796;9.902;2023-08-30T18:16:41;2.97;;;2.50;;
9094;SDS011;4583;49.796;9.902;2023-08-30T18:26:44;2.50;;;2.20;;
9094;SDS011;4583;49.796;9.902;2023-08-30T18:36:46;2.90;;;2.40;;
9094;SDS011;4583;49.796;9.902;2023-08-30T18:46:48;3.53;;;2.30;;
9094;SDS011;4583;49.796;9.902;2023-08-30T18:56:50;3.07;;;2.57;;
9094;SDS011;4583;49.796;9.902;2023-08-30T19:06:52;4.87;;;2.50;;
9094;SDS011;4583;49.796;9.902;2023-08-30T19:16:53;3.63;;;2.70;;
9094;SDS011;4583;49.796;9.902;2023-08-30T19:26:55;3.60;;;2.60;;
9094;SDS011;4583;49.796;9.902;2023-08-30T19:36:57;6.03;;;3.10;;
9094;SDS011;4583;49.796;9.902;2023-08-30T19:46:59;3.00;;;2.70;;
9094;SDS011;4583;49.796;9.902;2023-08-30T19:57:01;3.37;;;2.43;;
9094;SDS011;4583;49.796;9.902;2023-08-30T20:07:03;4.90;;;1.60;;
9094;SDS011;4583;49.796;9.902;2023-08-30T20:17:06;8.73;;;2.40;;
9094;SDS011;4583;49.796;9.902;2023-08-30T20:27:07;3.43;;;1.90;;
9094;SDS011;4583;49.796;9.902;2023-08-30T20:37:09;3.23;;;1.70;;
9094;SDS011;4583;49.796;9.902;2023-08-30T20:47:11;4.97;;;1.80;;
9094;SDS011;4583;49.796;9.902;2023-08-30T20:57:13;6.40;;;1.93;;
9094;SDS011;4583;49.796;9.902;2023-08-30T21:07:15;3.23;;;1.87;;
9094;SDS011;4583;49.796;9.902;2023-08-30T21:17:17;4.23;;;2.30;;
9094;SDS011;4583;49.796;9.902;2023-08-30T21:27:19;2.13;;;1.57;;
9094;SDS011;4583;49.796;9.902;2023-08-30T21:37:20;2.77;;;1.97;;
9094;SDS011;4583;49.796;9.902;2023-08-30T21:47:22;3.23;;;1.90;;
9094;SDS011;4583;49.796;9.902;2023-08-30T21:57:24;2.27;;;1.60;;
9094;SDS011;4583;49.796;9.902;2023-08-30T22:07:26;2.23;;;1.90;;
9094;SDS011;4583;49.796;9.902;2023-08-30T22:17:28;2.20;;;1.80;;
9094;SDS011;4583;49.796;9.902;2023-08-30T22:27:29;5.40;;;1.80;;
9094;SDS011;4583;49.796;9.902;2023-08-30T22:37:32;4.30;;;1.83;;
9094;SDS011;4583;49.796;9.902;2023-08-30T22:47:34;2.00;;;1.50;;
9094;SDS011;4583;49.796;9.902;2023-08-30T22:57:36;2.23;;;1.80;;
9094;SDS011;4583;49.796;9.902;2023-08-30T23:07:38;1.97;;;1.80;;
9094;SDS011;4583;49.796;9.902;2023-08-30T23:17:43;2.53;;;1.80;;
9094;SDS011;4583;49.796;9.902;2023-08-30T23:27:46;2.33;;;1.70;;
9094;SDS011;4583;49.796;9.902;2023-08-30T23:37:48;1.53;;;1.37;;
9094;SDS011;4583;49.796;9.902;2023-08-30T23:47:50;2.17;;;1.40;;
9094;SDS011;4583;49.796;9.902;2023-08-30T23:57:52;5.77;;;1.30;;
